sensor_id;sensor_type;location;lat;lon;timestamp;pressure;altitude;pressure_sealevel;temperature;humidity
74218;BME280;62579;47.288;18.646;2024-03-08T00:01:43;100222.63;;;5.30;100.00
74218;BME280;62579;47.288;18.646;2024-03-08T00:04:10;100215.72;;;5.38;100.00
74218;BME280;62579;47.288;18.646;2024-03-08T00:06:35;100213.16;;;5.43;100.00
74218;BME280;62579;47.288;18.646;2024-03-08T00:09:01;100214.81;;;5.41;100.00
74218;BME280;62579;47.288;18.646;2024-03-08T00:11:26;100217.84;;;5.34;100.00
74218;BME280;62579;47.288;18.646;2024-03-08T00:13:52;100208.97;;;5.42;100.00
74218;BME280;62579;47.288;18.646;2024-03-08T00:16:19;100213.78;;;5.38;100.00
74218;BME280;62579;47.288;18.646;2024-03-08T00:18:45;100216.19;;;5.45;100.00
74218;BME280;62579;47.288;18.646;2024-03-08T00:21:10;100217.22;;;5.39;100.00
74218;BME280;62579;47.288;18.646;2024-03-08T00:23:37;100220.81;;;5.36;100.00
74218;BME280;62579;47.288;18.646;2024-03-08T00:26:03;100225.31;;;5.30;100.00
74218;BME280;62579;47.288;18.646;2024-03-08T00:28:29;100219.91;;;5.30;100.00
74218;BME280;62579;47.288;18.646;2024-03-08T00:30:57;100225.03;;;5.28;100.00
74218;BME280;62579;47.288;18.646;2024-03-08T00:33:22;100224.25;;;5.27;100.00
74218;BME280;62579;47.288;18.646;2024-03-08T00:35:47;100221.44;;;5.13;100.00
74218;BME280;62579;47.288;18.646;2024-03-08T00:38:13;100223.66;;;5.14;100.00
74218;BME280;62579;47.288;18.646;2024-03-08T00:40:38;100218.28;;;5.23;100.00
74218;BME280;62579;47.288;18.646;2024-03-08T00:43:06;100222.03;;;5.17;100.00
74218;BME280;62579;47.288;18.646;2024-03-08T00:45:34;100216.03;;;5.22;100.00
74218;BME280;62579;47.288;18.646;2024-03-08T00:47:59;100214.69;;;5.26;100.00
74218;BME280;62579;47.288;18.646;2024-03-08T00:50:25;100204.94;;;5.29;100.00
74218;BME280;62579;47.288;18.646;2024-03-08T00:52:51;100208.06;;;5.27;100.00
74218;BME280;62579;47.288;18.646;2024-03-08T00:55:16;100203.75;;;5.21;100.00
74218;BME280;62579;47.288;18.646;2024-03-08T00:57:42;100204.50;;;5.12;100.00
74218;BME280;62579;47.288;18.646;2024-03-08T01:00:08;100201.03;;;5.12;100.00
74218;BME280;62579;47.288;18.646;2024-03-08T01:02:37;100205.69;;;5.20;100.00
74218;BME280;62579;47.288;18.646;2024-03-08T01:05:03;100201.06;;;5.21;100.00
74218;BME280;62579;47.288;18.646;2024-03-08T01:07:29;100195.63;;;5.30;100.00
74218;BME280;62579;47.288;18.646;2024-03-08T01:09:55;100204.34;;;5.25;100.00
74218;BME280;62579;47.288;18.646;2024-03-08T01:12:20;100202.69;;;5.27;100.00
74218;BME280;62579;47.288;18.646;2024-03-08T01:14:47;100191.72;;;5.49;100.00
74218;BME280;62579;47.288;18.646;2024-03-08T01:17:13;100195.19;;;5.31;100.00
74218;BME280;62579;47.288;18.646;2024-03-08T01:19:40;100195.94;;;5.23;100.00
74218;BME280;62579;47.288;18.646;2024-03-08T01:22:05;100197.75;;;5.17;100.00
74218;BME280;62579;47.288;18.646;2024-03-08T01:24:30;100202.25;;;5.20;100.00
74218;BME280;62579;47.288;18.646;2024-03-08T01:26:56;100196.56;;;5.18;100.00
74218;BME280;62579;47.288;18.646;2024-03-08T01:29:21;100199.25;;;5.09;100.00
74218;BME280;62579;47.288;18.646;2024-03-08T01:31:47;100206.28;;;5.15;100.00
74218;BME280;62579;47.288;18.646;2024-03-08T01:34:13;100195.81;;;5.26;100.00
74218;BME280;62579;47.288;18.646;2024-03-08T01:36:38;100199.22;;;5.36;100.00
74218;BME280;62579;47.288;18.646;2024-03-08T01:39:03;100201.47;;;5.19;100.00
74218;BME280;62579;47.288;18.646;2024-03-08T01:41:33;100201.03;;;5.12;100.00
74218;BME280;62579;47.288;18.646;2024-03-08T01:43:59;100200.75;;;5.10;100.00
74218;BME280;62579;47.288;18.646;2024-03-08T01:46:24;100193.56;;;5.16;100.00
74218;BME280;62579;47.288;18.646;2024-03-08T01:48:50;100192.19;;;5.11;100.00
74218;BME280;62579;47.288;18.646;2024-03-08T01:51:16;100189.66;;;5.08;100.00
74218;BME280;62579;47.288;18.646;2024-03-08T01:53:42;100189.19;;;5.09;100.00
74218;BME280;62579;47.288;18.646;2024-03-08T01:56:11;100186.81;;;5.20;100.00
74218;BME280;62579;47.288;18.646;2024-03-08T01:58:40;100185.63;;;5.12;100.00
74218;BME280;62579;47.288;18.646;2024-03-08T02:01:11;100179.19;;;5.19;100.00
74218;BME280;62579;47.288;18.646;2024-03-08T02:03:37;100178.25;;;5.22;100.00
74218;BME280;62579;47.288;18.646;2024-03-08T02:06:03;100177.22;;;5.28;100.00
74218;BME280;62579;47.288;18.646;2024-03-08T02:08:30;100172.41;;;5.32;100.00
74218;BME280;62579;47.288;18.646;2024-03-08T02:10:58;100172.28;;;5.27;100.00
74218;BME280;62579;47.288;18.646;2024-03-08T02:13:23;100178.72;;;5.29;100.00
74218;BME280;62579;47.288;18.646;2024-03-08T02:15:59;100179.44;;;5.30;100.00
74218;BME280;62579;47.288;18.646;2024-03-08T02:18:25;100177.97;;;5.29;100.00
74218;BME280;62579;47.288;18.646;2024-03-08T02:20:59;100188.47;;;5.27;100.00
74218;BME280;62579;47.288;18.646;2024-03-08T02:23:25;100188.47;;;5.27;100.00
74218;BME280;62579;47.288;18.646;2024-03-08T02:25:51;100185.59;;;5.30;100.00
74218;BME280;62579;47.288;18.646;2024-03-08T02:28:17;100186.06;;;5.29;100.00
74218;BME280;62579;47.288;18.646;2024-03-08T02:30:47;100182.75;;;5.34;100.00
74218;BME280;62579;47.288;18.646;2024-03-08T02:33:17;100179.44;;;5.30;100.00
74218;BME280;62579;47.288;18.646;2024-03-08T02:35:44;100188.31;;;5.21;100.00
74218;BME280;62579;47.288;18.646;2024-03-08T02:38:13;100186.34;;;5.31;100.00
74218;BME280;62579;47.288;18.646;2024-03-08T02:40:42;100184.97;;;5.44;100.00
74218;BME280;62579;47.288;18.646;2024-03-08T02:43:11;100182.13;;;5.39;100.00
74218;BME280;62579;47.288;18.646;2024-03-08T02:45:36;100183.50;;;5.34;100.00
74218;BME280;62579;47.288;18.646;2024-03-08T02:48:02;100178.09;;;5.34;100.00
74218;BME280;62579;47.288;18.646;2024-03-08T02:50:31;100179.44;;;5.39;100.00
74218;BME280;62579;47.288;18.646;2024-03-08T02:52:57;100178.06;;;5.43;100.00
74218;BME280;62579;47.288;18.646;2024-03-08T02:55:24;100185.59;;;5.49;100.00
74218;BME280;62579;47.288;18.646;2024-03-08T02:57:50;100174.03;;;5.39;100.00
74218;BME280;62579;47.288;18.646;2024-03-08T03:00:16;100180.06;;;5.34;100.00
74218;BME280;62579;47.288;18.646;2024-03-08T03:02:44;100182.59;;;5.37;100.00
74218;BME280;62579;47.288;18.646;2024-03-08T03:05:10;100178.53;;;5.42;100.00
74218;BME280;62579;47.288;18.646;2024-03-08T03:07:36;100186.78;;;5.38;100.00
74218;BME280;62579;47.288;18.646;2024-03-08T03:10:03;100184.81;;;5.57;100.00
74218;BME280;62579;47.288;18.646;2024-03-08T03:12:29;100183.94;;;5.51;100.00
74218;BME280;62579;47.288;18.646;2024-03-08T03:14:54;100189.47;;;5.38;100.00
74218;BME280;62579;47.288;18.646;2024-03-08T03:17:22;100186.34;;;5.40;100.00
74218;BME280;62579;47.288;18.646;2024-03-08T03:19:48;100184.41;;;5.40;100.00
74218;BME280;62579;47.288;18.646;2024-03-08T03:22:13;100190.53;;;5.41;100.00
74218;BME280;62579;47.288;18.646;2024-03-08T03:24:38;100194.72;;;5.42;100.00
74218;BME280;62579;47.288;18.646;2024-03-08T03:27:04;100195.94;;;5.41;100.00
74218;BME280;62579;47.288;18.646;2024-03-08T03:29:43;100186.91;;;5.53;100.00
74218;BME280;62579;47.288;18.646;2024-03-08T03:32:13;100196.22;;;5.52;100.00
74218;BME280;62579;47.288;18.646;2024-03-08T03:34:43;100195.31;;;5.55;100.00
74218;BME280;62579;47.288;18.646;2024-03-08T03:37:09;100194.69;;;5.60;100.00
74218;BME280;62579;47.288;18.646;2024-03-08T03:39:40;100187.50;;;5.57;100.00
74218;BME280;62579;47.288;18.646;2024-03-08T03:42:17;100186.91;;;5.53;100.00
74218;BME280;62579;47.288;18.646;2024-03-08T03:44:47;100193.41;;;5.37;100.00
74218;BME280;62579;47.288;18.646;2024-03-08T03:47:13;100200.44;;;5.26;100.00
74218;BME280;62579;47.288;18.646;2024-03-08T03:49:40;100185.16;;;5.23;100.00
74218;BME280;62579;47.288;18.646;2024-03-08T03:52:05;100194.44;;;5.31;100.00
74218;BME280;62579;47.288;18.646;2024-03-08T03:54:31;100197.16;;;5.13;100.00
74218;BME280;62579;47.288;18.646;2024-03-08T03:56:58;100199.25;;;5.09;100.00
74218;BME280;62579;47.288;18.646;2024-03-08T03:59:25;100194.00;;;5.14;100.00
74218;BME280;62579;47.288;18.646;2024-03-08T04:01:50;100198.06;;;5.10;100.00
74218;BME280;62579;47.288;18.646;2024-03-08T04:04:16;100196.87;;;5.11;100.00
74218;BME280;62579;47.288;18.646;2024-03-08T04:06:41;100187.84;;;5.14;100.00
74218;BME280;62579;47.288;18.646;2024-03-08T04:09:07;100194.59;;;5.09;100.00
74218;BME280;62579;47.288;18.646;2024-03-08T04:11:32;100196.84;;;5.02;100.00
74218;BME280;62579;47.288;18.646;2024-03-08T04:13:59;100198.50;;;5.08;100.00
74218;BME280;62579;47.288;18.646;2024-03-08T04:16:24;100203.59;;;5.15;100.00
74218;BME280;62579;47.288;18.646;2024-03-08T04:18:51;100202.09;;;5.23;100.00
74218;BME280;62579;47.288;18.646;2024-03-08T04:21:18;100206.28;;;5.15;100.00
74218;BME280;62579;47.288;18.646;2024-03-08T04:23:46;100205.69;;;5.11;100.00
74218;BME280;62579;47.288;18.646;2024-03-08T04:26:11;100206.28;;;5.15;100.00
74218;BME280;62579;47.288;18.646;2024-03-08T04:28:38;100200.16;;;5.24;100.00
74218;BME280;62579;47.288;18.646;2024-03-08T04:31:05;100195.81;;;5.26;100.00
74218;BME280;62579;47.288;18.646;2024-03-08T04:33:30;100199.84;;;5.40;100.00
74218;BME280;62579;47.288;18.646;2024-03-08T04:35:55;100202.69;;;5.27;100.00
74218;BME280;62579;47.288;18.646;2024-03-08T04:38:22;100205.38;;;5.09;100.00
74218;BME280;62579;47.288;18.646;2024-03-08T04:40:48;100204.50;;;5.21;100.00
74218;BME280;62579;47.288;18.646;2024-03-08T04:43:15;100204.34;;;5.16;100.00
74218;BME280;62579;47.288;18.646;2024-03-08T04:45:41;100201.03;;;5.12;100.00
74218;BME280;62579;47.288;18.646;2024-03-08T04:48:08;100210.03;;;5.18;100.00
74218;BME280;62579;47.288;18.646;2024-03-08T04:50:34;100215.44;;;5.09;100.00
74218;BME280;62579;47.288;18.646;2024-03-08T04:52:59;100226.06;;;5.12;100.00
74218;BME280;62579;47.288;18.646;2024-03-08T04:55:25;100211.53;;;5.01;100.00
74218;BME280;62579;47.288;18.646;2024-03-08T04:57:50;100214.97;;;5.01;100.00
74218;BME280;62579;47.288;18.646;2024-03-08T05:00:17;100212.91;;;5.05;100.00
74218;BME280;62579;47.288;18.646;2024-03-08T05:02:43;100210.50;;;4.89;100.00
74218;BME280;62579;47.288;18.646;2024-03-08T05:05:09;100213.78;;;4.93;100.00
74218;BME280;62579;47.288;18.646;2024-03-08T05:07:38;100216.03;;;4.95;100.00
74218;BME280;62579;47.288;18.646;2024-03-08T05:10:03;100213.19;;;5.07;100.00
74218;BME280;62579;47.288;18.646;2024-03-08T05:12:29;100214.38;;;4.97;100.00
74218;BME280;62579;47.288;18.646;2024-03-08T05:14:54;100214.22;;;5.01;100.00
74218;BME280;62579;47.288;18.646;2024-03-08T05:17:20;100216.91;;;5.01;100.00
74218;BME280;62579;47.288;18.646;2024-03-08T05:19:46;100220.22;;;5.14;100.00
74218;BME280;62579;47.288;18.646;2024-03-08T05:22:11;100215.44;;;5.18;100.00
74218;BME280;62579;47.288;18.646;2024-03-08T05:24:37;100218.88;;;5.09;100.00
74218;BME280;62579;47.288;18.646;2024-03-08T05:27:02;100219.19;;;5.02;100.00
74218;BME280;62579;47.288;18.646;2024-03-08T05:29:29;100222.03;;;5.08;100.00
74218;BME280;62579;47.288;18.646;2024-03-08T05:31:55;100219.19;;;5.20;100.00
74218;BME280;62579;47.288;18.646;2024-03-08T05:34:21;100218.88;;;5.09;100.00
74218;BME280;62579;47.288;18.646;2024-03-08T05:36:47;100217.38;;;5.17;100.00
74218;BME280;62579;47.288;18.646;2024-03-08T05:39:15;100221.72;;;5.15;100.00
74218;BME280;62579;47.288;18.646;2024-03-08T05:41:43;100224.56;;;5.11;100.00
74218;BME280;62579;47.288;18.646;2024-03-08T05:44:09;100219.78;;;4.97;100.00
74218;BME280;62579;47.288;18.646;2024-03-08T05:46:35;100229.19;;;4.93;100.00
74218;BME280;62579;47.288;18.646;2024-03-08T05:49:05;100227.56;;;4.95;100.00
74218;BME280;62579;47.288;18.646;2024-03-08T05:51:31;100228.91;;;4.91;100.00
74218;BME280;62579;47.288;18.646;2024-03-08T05:53:59;100234.44;;;4.87;100.00
74218;BME280;62579;47.288;18.646;2024-03-08T05:56:26;100233.41;;;4.94;100.00
74218;BME280;62579;47.288;18.646;2024-03-08T05:58:52;100241.06;;;5.04;100.00
74218;BME280;62579;47.288;18.646;2024-03-08T06:01:18;100240.47;;;5.09;100.00
74218;BME280;62579;47.288;18.646;2024-03-08T06:03:43;100236.13;;;5.03;100.00
74218;BME280;62579;47.288;18.646;2024-03-08T06:06:13;100235.81;;;5.01;100.00
74218;BME280;62579;47.288;18.646;2024-03-08T06:08:41;100247.03;;;4.99;100.00
74218;BME280;62579;47.288;18.646;2024-03-08T06:11:09;100241.81;;;5.05;100.00
74218;BME280;62579;47.288;18.646;2024-03-08T06:13:44;100244.78;;;4.98;100.00
74218;BME280;62579;47.288;18.646;2024-03-08T06:16:09;100244.06;;;4.97;100.00
74218;BME280;62579;47.288;18.646;2024-03-08T06:18:35;100241.81;;;5.05;100.00
74218;BME280;62579;47.288;18.646;2024-03-08T06:21:08;100249.00;;;5.08;100.00
74218;BME280;62579;47.288;18.646;2024-03-08T06:23:41;100256.63;;;4.91;100.00
74218;BME280;62579;47.288;18.646;2024-03-08T06:26:07;100253.34;;;4.96;100.00
74218;BME280;62579;47.288;18.646;2024-03-08T06:28:33;100256.47;;;5.04;100.00
74218;BME280;62579;47.288;18.646;2024-03-08T06:31:00;100257.53;;;5.06;100.00
74218;BME280;62579;47.288;18.646;2024-03-08T06:33:26;100253.34;;;4.96;100.00
74218;BME280;62579;47.288;18.646;2024-03-08T06:35:54;100265.19;;;5.08;100.00
74218;BME280;62579;47.288;18.646;2024-03-08T06:38:23;100253.06;;;5.12;100.00
74218;BME280;62579;47.288;18.646;2024-03-08T06:40:48;100260.25;;;5.15;100.00
74218;BME280;62579;47.288;18.646;2024-03-08T06:43:14;100265.19;;;5.17;100.00
74218;BME280;62579;47.288;18.646;2024-03-08T06:45:42;100261.75;;;5.16;100.00
74218;BME280;62579;47.288;18.646;2024-03-08T06:48:10;100258.59;;;5.18;100.00
74218;BME280;62579;47.288;18.646;2024-03-08T06:50:36;100266.22;;;5.19;100.00
74218;BME280;62579;47.288;18.646;2024-03-08T06:53:01;100273.16;;;5.20;100.00
74218;BME280;62579;47.288;18.646;2024-03-08T06:55:28;100270.44;;;5.20;100.00
74218;BME280;62579;47.288;18.646;2024-03-08T06:57:54;100276.88;;;5.14;100.00
74218;BME280;62579;47.288;18.646;2024-03-08T07:00:19;100276.16;;;5.13;100.00
74218;BME280;62579;47.288;18.646;2024-03-08T07:02:46;100276.31;;;5.19;100.00
74218;BME280;62579;47.288;18.646;2024-03-08T07:05:11;100273.28;;;5.17;100.00
74218;BME280;62579;47.288;18.646;2024-03-08T07:07:37;100266.72;;;5.27;100.00
74218;BME280;62579;47.288;18.646;2024-03-08T07:10:03;100276.28;;;5.28;100.00
74218;BME280;62579;47.288;18.646;2024-03-08T07:12:28;100267.75;;;5.29;100.00
74218;BME280;62579;47.288;18.646;2024-03-08T07:14:53;100269.41;;;5.18;100.00
74218;BME280;62579;47.288;18.646;2024-03-08T07:17:19;100267.87;;;5.17;100.00
74218;BME280;62579;47.288;18.646;2024-03-08T07:19:44;100272.81;;;5.09;100.00
74218;BME280;62579;47.288;18.646;2024-03-08T07:22:10;100269.84;;;5.16;100.00
74218;BME280;62579;47.288;18.646;2024-03-08T07:24:36;100273.16;;;5.29;100.00
74218;BME280;62579;47.288;18.646;2024-03-08T07:27:05;100268.19;;;5.28;100.00
74218;BME280;62579;47.288;18.646;2024-03-08T07:29:34;100273.91;;;5.39;100.00
74218;BME280;62579;47.288;18.646;2024-03-08T07:32:00;100274.19;;;5.41;100.00
74218;BME280;62579;47.288;18.646;2024-03-08T07:34:25;100281.69;;;5.37;100.00
74218;BME280;62579;47.288;18.646;2024-03-08T07:36:51;100274.63;;;5.30;100.00
74218;BME280;62579;47.288;18.646;2024-03-08T07:39:16;100273.75;;;5.24;100.00
74218;BME280;62579;47.288;18.646;2024-03-08T07:41:42;100277.34;;;5.21;100.00
74218;BME280;62579;47.288;18.646;2024-03-08T07:44:07;100276.88;;;5.23;100.00
74218;BME280;62579;47.288;18.646;2024-03-08T07:46:33;100279.16;;;5.33;100.00
74218;BME280;62579;47.288;18.646;2024-03-08T07:49:02;100279.44;;;5.44;100.00
74218;BME280;62579;47.288;18.646;2024-03-08T07:51:28;100278.41;;;5.51;100.00
74218;BME280;62579;47.288;18.646;2024-03-08T07:53:53;100272.09;;;5.45;100.00
74218;BME280;62579;47.288;18.646;2024-03-08T07:56:20;100276.88;;;5.41;100.00
74218;BME280;62579;47.288;18.646;2024-03-08T07:58:47;100282.88;;;5.54;100.00
74218;BME280;62579;47.288;18.646;2024-03-08T08:01:18;100278.69;;;5.62;100.00
74218;BME280;62579;47.288;18.646;2024-03-08T08:03:44;100285.59;;;5.54;100.00
74218;BME280;62579;47.288;18.646;2024-03-08T08:06:10;100273.88;;;5.66;100.00
74218;BME280;62579;47.288;18.646;2024-03-08T08:08:43;100282.13;;;5.63;100.00
74218;BME280;62579;47.288;18.646;2024-03-08T08:11:09;100278.38;;;5.60;100.00
74218;BME280;62579;47.288;18.646;2024-03-08T08:13:35;100283.19;;;5.56;100.00
74218;BME280;62579;47.288;18.646;2024-03-08T08:16:02;100280.63;;;5.43;100.00
74218;BME280;62579;47.288;18.646;2024-03-08T08:18:27;100279.00;;;5.46;100.00
74218;BME280;62579;47.288;18.646;2024-03-08T08:20:54;100282.75;;;5.49;100.00
74218;BME280;62579;47.288;18.646;2024-03-08T08:23:20;100278.69;;;5.53;100.00
74218;BME280;62579;47.288;18.646;2024-03-08T08:25:46;100281.69;;;5.55;100.00
74218;BME280;62579;47.288;18.646;2024-03-08T08:28:11;100283.34;;;5.62;100.00
74218;BME280;62579;47.288;18.646;2024-03-08T08:30:38;100284.97;;;5.68;100.00
74218;BME280;62579;47.288;18.646;2024-03-08T08:33:03;100283.31;;;5.71;100.00
74218;BME280;62579;47.288;18.646;2024-03-08T08:35:31;100283.66;;;5.73;100.00
74218;BME280;62579;47.288;18.646;2024-03-08T08:37:57;100282.44;;;5.74;100.00
74218;BME280;62579;47.288;18.646;2024-03-08T08:40:24;100277.78;;;5.92;100.00
74218;BME280;62579;47.288;18.646;2024-03-08T08:42:51;100269.66;;;5.92;100.00
74218;BME280;62579;47.288;18.646;2024-03-08T08:45:16;100279.09;;;6.06;100.00
74218;BME280;62579;47.288;18.646;2024-03-08T08:47:43;100276.41;;;6.06;100.00
74218;BME280;62579;47.288;18.646;2024-03-08T08:50:10;100281.53;;;5.95;100.00
74218;BME280;62579;47.288;18.646;2024-03-08T08:52:39;100282.44;;;5.74;100.00
74218;BME280;62579;47.288;18.646;2024-03-08T08:55:05;100275.06;;;5.92;100.00
74218;BME280;62579;47.288;18.646;2024-03-08T08:57:32;100283.94;;;6.02;100.00
74218;BME280;62579;47.288;18.646;2024-03-08T08:59:58;100280.75;;;5.94;100.00
74218;BME280;62579;47.288;18.646;2024-03-08T09:02:24;100276.88;;;5.86;100.00
74218;BME280;62579;47.288;18.646;2024-03-08T09:04:50;100292.78;;;5.75;100.00
74218;BME280;62579;47.288;18.646;2024-03-08T09:07:16;100277.78;;;5.83;100.00
74218;BME280;62579;47.288;18.646;2024-03-08T09:09:44;100282.88;;;5.90;100.00
74218;BME280;62579;47.288;18.646;2024-03-08T09:12:09;100275.53;;;5.91;100.00
74218;BME280;62579;47.288;18.646;2024-03-08T09:14:41;100281.06;;;5.78;100.00
74218;BME280;62579;47.288;18.646;2024-03-08T09:17:07;100283.31;;;5.71;100.00
74218;BME280;62579;47.288;18.646;2024-03-08T09:19:34;100278.81;;;5.68;100.00
74218;BME280;62579;47.288;18.646;2024-03-08T09:21:59;100283.78;;;5.60;100.00
74218;BME280;62579;47.288;18.646;2024-03-08T09:24:24;100279.28;;;5.75;100.00
74218;BME280;62579;47.288;18.646;2024-03-08T09:26:50;100286.34;;;5.73;100.00
74218;BME280;62579;47.288;18.646;2024-03-08T09:29:15;100277.16;;;5.70;100.00
74218;BME280;62579;47.288;18.646;2024-03-08T09:31:41;100283.31;;;5.80;100.00
74218;BME280;62579;47.288;18.646;2024-03-08T09:34:06;100273.12;;;5.75;100.00
74218;BME280;62579;47.288;18.646;2024-03-08T09:36:33;100278.69;;;5.71;100.00
74218;BME280;62579;47.288;18.646;2024-03-08T09:38:59;100284.37;;;5.82;100.00
74218;BME280;62579;47.288;18.646;2024-03-08T09:41:25;100274.94;;;5.96;100.00
74218;BME280;62579;47.288;18.646;2024-03-08T09:43:51;100269.66;;;6.01;100.00
74218;BME280;62579;47.288;18.646;2024-03-08T09:46:18;100273.97;;;6.08;100.00
74218;BME280;62579;47.288;18.646;2024-03-08T09:48:45;100284.47;;;6.15;100.00
74218;BME280;62579;47.288;18.646;2024-03-08T09:51:12;100276.50;;;6.21;100.00
74218;BME280;62579;47.288;18.646;2024-03-08T09:53:40;100278.13;;;6.27;100.00
74218;BME280;62579;47.288;18.646;2024-03-08T09:56:07;100272.84;;;6.33;100.00
74218;BME280;62579;47.288;18.646;2024-03-08T09:58:33;100270.28;;;6.38;100.00
74218;BME280;62579;47.288;18.646;2024-03-08T10:00:59;100273.88;;;6.44;100.00
74218;BME280;62579;47.288;18.646;2024-03-08T10:03:28;100277.78;;;6.43;100.00
74218;BME280;62579;47.288;18.646;2024-03-08T10:05:56;100283.81;;;6.38;100.00
74218;BME280;62579;47.288;18.646;2024-03-08T10:08:25;100274.03;;;6.41;100.00
74218;BME280;62579;47.288;18.646;2024-03-08T10:10:51;100275.41;;;6.36;100.00
74218;BME280;62579;47.288;18.646;2024-03-08T10:13:17;100279.72;;;6.43;100.00
74218;BME280;62579;47.288;18.646;2024-03-08T10:15:44;100283.25;;;6.25;100.00
74218;BME280;62579;47.288;18.646;2024-03-08T10:18:10;100281.59;;;6.28;100.00
74218;BME280;62579;47.288;18.646;2024-03-08T10:20:36;100282.50;;;6.25;100.00
74218;BME280;62579;47.288;18.646;2024-03-08T10:23:02;100276.28;;;6.42;100.00
74218;BME280;62579;47.288;18.646;2024-03-08T10:25:31;100283.38;;;6.31;100.00
74218;BME280;62579;47.288;18.646;2024-03-08T10:27:57;100283.41;;;6.22;100.00
74218;BME280;62579;47.288;18.646;2024-03-08T10:30:22;100280.97;;;6.33;100.00
74218;BME280;62579;47.288;18.646;2024-03-08T10:32:48;100280.06;;;6.27;100.00
74218;BME280;62579;47.288;18.646;2024-03-08T10:35:14;100279.09;;;6.15;100.00
74218;BME280;62579;47.288;18.646;2024-03-08T10:37:51;100286.09;;;6.22;100.00
74218;BME280;62579;47.288;18.646;2024-03-08T10:40:29;100277.50;;;6.32;100.00
74218;BME280;62579;47.288;18.646;2024-03-08T10:42:59;100277.06;;;6.34;100.00
74218;BME280;62579;47.288;18.646;2024-03-08T10:45:37;100268.63;;;6.41;100.00
74218;BME280;62579;47.288;18.646;2024-03-08T10:50:47;100266.97;;;6.43;100.00
74218;BME280;62579;47.288;18.646;2024-03-08T10:53:17;100263.34;;;6.46;100.00
74218;BME280;62579;47.288;18.646;2024-03-08T10:55:43;100259.25;;;6.51;100.00
74218;BME280;62579;47.288;18.646;2024-03-08T10:58:09;100258.81;;;6.52;100.00
74218;BME280;62579;47.288;18.646;2024-03-08T11:00:35;100258.81;;;6.52;100.00
74218;BME280;62579;47.288;18.646;2024-03-08T11:03:01;100259.19;;;6.69;100.00
74218;BME280;62579;47.288;18.646;2024-03-08T11:05:37;100266.19;;;6.76;100.00
74218;BME280;62579;47.288;18.646;2024-03-08T11:10:47;100255.84;;;6.98;100.00
74218;BME280;62579;47.288;18.646;2024-03-08T11:15:57;100246.94;;;6.83;100.00
74218;BME280;62579;47.288;18.646;2024-03-08T11:18:26;100251.00;;;6.78;100.00
74218;BME280;62579;47.288;18.646;2024-03-08T11:20:54;100242.44;;;7.03;100.00
74218;BME280;62579;47.288;18.646;2024-03-08T11:23:22;100251.16;;;7.22;100.00
74218;BME280;62579;47.288;18.646;2024-03-08T11:25:48;100249.22;;;7.37;100.00
74218;BME280;62579;47.288;18.646;2024-03-08T11:31:26;100244.56;;;7.23;100.00
74218;BME280;62579;47.288;18.646;2024-03-08T11:33:34;100245.38;;;7.14;100.00
74218;BME280;62579;47.288;18.646;2024-03-08T11:38:40;100247.56;;;7.01;100.00
74218;BME280;62579;47.288;18.646;2024-03-08T11:41:06;100245.31;;;7.00;100.00
74218;BME280;62579;47.288;18.646;2024-03-08T11:43:31;100248.31;;;7.02;100.00
74218;BME280;62579;47.288;18.646;2024-03-08T11:46:09;100243.94;;;7.04;100.00
74218;BME280;62579;47.288;18.646;2024-03-08T11:48:35;100233.91;;;7.19;100.00
74218;BME280;62579;47.288;18.646;2024-03-08T11:51:03;100237.75;;;7.28;100.00
74218;BME280;62579;47.288;18.646;2024-03-08T11:53:30;100230.94;;;7.32;100.00
74218;BME280;62579;47.288;18.646;2024-03-08T11:56:09;100233.16;;;7.19;100.00
74218;BME280;62579;47.288;18.646;2024-03-08T11:58:35;100231.47;;;7.21;100.00
74218;BME280;62579;47.288;18.646;2024-03-08T12:01:04;100224.03;;;7.31;100.00
74218;BME280;62579;47.288;18.646;2024-03-08T12:03:31;100218.78;;;7.28;100.00
74218;BME280;62579;47.288;18.646;2024-03-08T12:06:00;100215.91;;;7.31;100.00
74218;BME280;62579;47.288;18.646;2024-03-08T12:08:25;100218.16;;;7.33;100.00
74218;BME280;62579;47.288;18.646;2024-03-08T12:10:53;100229.06;;;7.38;100.00
74218;BME280;62579;47.288;18.646;2024-03-08T12:13:20;100222.84;;;7.47;100.00
74218;BME280;62579;47.288;18.646;2024-03-08T12:15:46;100222.56;;;7.45;100.00
74218;BME280;62579;47.288;18.646;2024-03-08T12:18:12;100216.56;;;7.41;100.00
74218;BME280;62579;47.288;18.646;2024-03-08T12:20:38;100220.97;;;7.38;100.00
74218;BME280;62579;47.288;18.646;2024-03-08T12:23:04;100214.34;;;7.39;100.00
74218;BME280;62579;47.288;18.646;2024-03-08T12:25:31;100221.34;;;7.60;100.00
74218;BME280;62579;47.288;18.646;2024-03-08T12:28:07;100215.38;;;7.56;100.00
74218;BME280;62579;47.288;18.646;2024-03-08T12:30:47;100210.41;;;7.69;100.00
74218;BME280;62579;47.288;18.646;2024-03-08T12:33:13;100206.78;;;7.72;100.00
74218;BME280;62579;47.288;18.646;2024-03-08T12:35:39;100210.59;;;7.80;100.00
74218;BME280;62579;47.288;18.646;2024-03-08T12:38:04;100205.09;;;7.75;100.00
74218;BME280;62579;47.288;18.646;2024-03-08T12:40:32;100208.94;;;7.68;100.00
74218;BME280;62579;47.288;18.646;2024-03-08T12:42:59;100202.59;;;7.71;100.00
74218;BME280;62579;47.288;18.646;2024-03-08T12:45:25;100212.94;;;7.73;100.00
74218;BME280;62579;47.288;18.646;2024-03-08T12:47:51;100213.03;;;7.78;100.00
74218;BME280;62579;47.288;18.646;2024-03-08T12:50:18;100209.97;;;7.71;100.00
74218;BME280;62579;47.288;18.646;2024-03-08T12:52:43;100210.63;;;7.66;100.00